createdAt,value
2019-01-29T00:00:08.261Z,90.80
2019-01-29T00:01:05.235Z,90.70
2019-01-29T00:02:05.448Z,90.70
2019-01-29T00:03:08.146Z,90.70
2019-01-29T00:04:05.120Z,90.70
2019-01-29T00:05:05.287Z,90.70
2019-01-29T00:06:05.525Z,90.70
2019-01-29T00:07:08.140Z,90.70
2019-01-29T00:08:07.613Z,90.60
2019-01-29T00:09:05.567Z,90.70
2019-01-29T00:10:05.733Z,90.50
2019-01-29T00:11:05.857Z,90.50
2019-01-29T00:12:08.479Z,90.50
2019-01-29T00:13:05.541Z,90.50
2019-01-29T00:14:05.732Z,90.50
2019-01-29T00:15:05.888Z,90.50
2019-01-29T00:16:08.455Z,90.40
2019-01-29T00:17:08.159Z,90.40
2019-01-29T00:18:05.198Z,90.50
2019-01-29T00:19:05.374Z,90.40
2019-01-29T00:20:08.058Z,90.40
2019-01-29T00:21:05.172Z,90.40
2019-01-29T00:22:07.972Z,90.30
2019-01-29T00:23:08.523Z,90.20
2019-01-29T00:24:05.669Z,90.20
2019-01-29T00:25:05.855Z,90.20
2019-01-29T00:26:06.102Z,90.20
2019-01-29T00:27:05.314Z,90.20
2019-01-29T00:28:05.521Z,90.20
2019-01-29T00:29:05.933Z,90.20
2019-01-29T00:30:05.535Z,90.20
2019-01-29T00:31:05.624Z,90.20
2019-01-29T00:32:05.883Z,90.20
2019-01-29T00:33:05.197Z,90.10
2019-01-29T00:34:05.378Z,90.20
2019-01-29T00:35:08.133Z,90.10
2019-01-29T00:36:05.214Z,90.10
2019-01-29T00:37:05.511Z,90.10
2019-01-29T00:38:05.801Z,90.10
2019-01-29T00:39:08.424Z,90.10
2019-01-29T00:40:05.336Z,90.20
2019-01-29T00:41:08.162Z,90.10
2019-01-29T00:42:05.152Z,90.10
2019-01-29T00:43:05.192Z,90.10
2019-01-29T00:44:05.353Z,90.20
2019-01-29T00:45:10.484Z,90.30
2019-01-29T00:46:05.401Z,90.30
2019-01-29T00:47:05.650Z,90.30
2019-01-29T00:48:05.881Z,90.30
2019-01-29T00:49:08.537Z,90.40
2019-01-29T00:50:05.491Z,90.40
2019-01-29T00:51:05.640Z,90.40
2019-01-29T00:52:05.768Z,90.40
2019-01-29T00:53:08.393Z,90.40
2019-01-29T00:54:07.867Z,90.40
2019-01-29T00:55:05.845Z,90.50
2019-01-29T00:56:04.980Z,90.50
2019-01-29T00:57:05.058Z,90.50
2019-01-29T00:58:10.310Z,90.50
2019-01-29T00:59:05.362Z,90.60
2019-01-29T01:00:07.968Z,90.50
2019-01-29T01:01:06.059Z,90.50
2019-01-29T01:02:07.820Z,90.60
2019-01-29T01:03:08.333Z,90.40
2019-01-29T01:04:05.376Z,90.50
2019-01-29T01:05:05.513Z,90.40
2019-01-29T01:06:10.868Z,90.40
2019-01-29T01:07:10.932Z,90.30
2019-01-29T01:08:08.448Z,90.30
2019-01-29T01:09:07.887Z,90.20
2019-01-29T01:10:06.052Z,90.20
2019-01-29T01:11:05.239Z,90.10
2019-01-29T01:12:07.918Z,90.10
2019-01-29T01:13:06.010Z,90.10
2019-01-29T01:14:05.258Z,90.00
2019-01-29T01:15:05.441Z,90.00
2019-01-29T01:16:05.542Z,90.00
2019-01-29T01:17:05.644Z,90.00
2019-01-29T01:18:05.796Z,90.00
2019-01-29T01:19:05.828Z,90.00
2019-01-29T01:20:08.579Z,89.90
2019-01-29T01:21:08.092Z,89.80
2019-01-29T01:22:07.540Z,89.80
2019-01-29T01:23:06.224Z,89.90
2019-01-29T01:24:05.404Z,89.90
2019-01-29T01:25:05.508Z,89.80
2019-01-29T01:26:05.734Z,89.70
2019-01-29T01:27:05.971Z,89.60
2019-01-29T01:28:05.088Z,89.60
2019-01-29T01:29:05.171Z,89.60
2019-01-29T01:30:05.588Z,89.60
2019-01-29T01:31:05.871Z,89.60
2019-01-29T01:32:05.911Z,89.60
2019-01-29T01:33:10.151Z,89.70
2019-01-29T01:34:05.138Z,89.70
2019-01-29T01:35:07.837Z,89.70
2019-01-29T01:36:05.901Z,89.70
2019-01-29T01:37:05.045Z,89.70
2019-01-29T01:38:05.103Z,89.70
2019-01-29T01:39:05.209Z,89.70
2019-01-29T01:40:05.218Z,89.60
2019-01-29T01:41:07.827Z,89.60
2019-01-29T01:42:06.006Z,89.70
2019-01-29T01:43:07.630Z,89.60
2019-01-29T01:44:05.784Z,89.60
2019-01-29T01:45:05.979Z,89.60
2019-01-29T01:46:05.233Z,89.60
2019-01-29T01:47:07.957Z,89.60
2019-01-29T01:48:08.409Z,89.50
2019-01-29T01:49:05.339Z,89.50
2019-01-29T01:50:06.096Z,89.50
2019-01-29T01:51:05.210Z,89.50
2019-01-29T01:52:05.420Z,89.50
2019-01-29T01:53:08.062Z,89.30
2019-01-29T01:54:07.634Z,89.20
2019-01-29T01:55:05.704Z,89.20
2019-01-29T01:56:08.393Z,89.20
2019-01-29T01:57:05.402Z,89.20
2019-01-29T01:58:08.101Z,89.30
2019-01-29T01:59:07.593Z,89.30
2019-01-29T02:00:05.528Z,89.30
2019-01-29T02:01:05.770Z,89.30
2019-01-29T02:02:05.948Z,89.30
2019-01-29T02:03:05.047Z,89.30
2019-01-29T02:04:07.711Z,89.30
2019-01-29T02:05:05.807Z,89.30
2019-01-29T02:06:06.077Z,89.30
2019-01-29T02:07:05.156Z,89.30
2019-01-29T02:08:05.554Z,89.30
2019-01-29T02:09:05.777Z,89.30
2019-01-29T02:10:06.070Z,89.30
2019-01-29T02:11:05.287Z,89.20
2019-01-29T02:12:07.866Z,89.10
2019-01-29T02:13:08.477Z,89.10
2019-01-29T02:14:05.478Z,89.10
2019-01-29T02:15:05.567Z,89.10
2019-01-29T02:16:05.698Z,89.10
2019-01-29T02:17:08.346Z,89.10
2019-01-29T02:18:05.284Z,89.20
2019-01-29T02:19:05.352Z,89.10
2019-01-29T02:20:07.981Z,89.00
2019-01-29T02:21:06.066Z,89.10
2019-01-29T02:22:05.330Z,89.00
2019-01-29T02:23:08.721Z,89.00
2019-01-29T02:24:05.966Z,89.00
2019-01-29T02:25:05.097Z,89.00
2019-01-29T02:26:05.404Z,89.00
2019-01-29T02:27:05.538Z,89.00
2019-01-29T02:28:05.689Z,89.00
2019-01-29T02:29:08.431Z,89.00
2019-01-29T02:30:05.354Z,89.00
2019-01-29T02:31:07.968Z,88.90
2019-01-29T02:32:08.491Z,88.90
2019-01-29T02:33:05.492Z,88.90
2019-01-29T02:34:08.159Z,88.90
2019-01-29T02:35:07.661Z,88.80
2019-01-29T02:36:08.131Z,88.80
2019-01-29T02:37:05.142Z,88.80
2019-01-29T02:38:07.609Z,88.80
2019-01-29T02:39:08.181Z,88.80
2019-01-29T02:40:07.742Z,88.80
2019-01-29T02:41:08.457Z,88.70
2019-01-29T02:42:10.510Z,88.70
2019-01-29T02:43:10.590Z,88.70
2019-01-29T02:44:05.712Z,88.70
2019-01-29T02:45:05.863Z,88.60
2019-01-29T02:46:08.509Z,88.60
2019-01-29T02:47:05.532Z,88.60
2019-01-29T02:48:08.186Z,88.50
2019-01-29T02:49:07.711Z,88.40
2019-01-29T02:50:08.204Z,88.30
2019-01-29T02:51:05.242Z,88.30
2019-01-29T02:52:07.871Z,88.30
2019-01-29T02:53:18.661Z,88.30
2019-01-29T02:54:08.179Z,88.20
2019-01-29T02:55:07.661Z,88.50
2019-01-29T02:56:05.728Z,88.30
2019-01-29T02:57:05.911Z,88.10
2019-01-29T02:58:07.656Z,88.20
2019-01-29T02:59:13.193Z,88.10
2019-01-29T03:00:05.116Z,88.20
2019-01-29T03:01:05.193Z,88.20
2019-01-29T03:02:05.508Z,88.10
2019-01-29T03:03:05.684Z,88.10
2019-01-29T03:04:05.730Z,88.00
2019-01-29T03:05:05.883Z,88.00
2019-01-29T03:06:07.639Z,87.80
2019-01-29T03:07:08.287Z,87.80
2019-01-29T03:08:07.742Z,87.70
2019-01-29T03:09:08.237Z,87.50
2019-01-29T03:10:07.680Z,87.70
2019-01-29T03:11:05.603Z,87.70
2019-01-29T03:12:08.223Z,87.60
2019-01-29T03:13:07.799Z,87.60
2019-01-29T03:14:08.352Z,87.60
2019-01-29T03:15:07.950Z,87.60
2019-01-29T03:16:05.923Z,87.60
2019-01-29T03:17:05.015Z,87.60
2019-01-29T03:18:05.140Z,87.70
2019-01-29T03:19:05.331Z,87.60
2019-01-29T03:20:08.123Z,87.60
2019-01-29T03:21:05.226Z,87.60
2019-01-29T03:22:05.638Z,87.50
2019-01-29T03:23:08.325Z,87.50
2019-01-29T03:24:05.255Z,87.50
2019-01-29T03:25:05.300Z,87.40
2019-01-29T03:26:07.996Z,87.40
2019-01-29T03:27:05.054Z,87.20
2019-01-29T03:28:05.111Z,87.40
2019-01-29T03:29:05.196Z,87.20
2019-01-29T03:30:08.135Z,87.30
2019-01-29T03:31:10.294Z,87.20
2019-01-29T03:32:05.344Z,87.30
2019-01-29T03:33:08.079Z,87.20
2019-01-29T03:34:05.048Z,87.10
2019-01-29T03:35:05.125Z,87.20
2019-01-29T03:36:08.467Z,87.10
2019-01-29T03:37:07.962Z,87.00
2019-01-29T03:38:05.985Z,87.20
2019-01-29T03:39:10.081Z,87.00
2019-01-29T03:40:06.051Z,87.00
2019-01-29T03:41:05.154Z,87.00
2019-01-29T03:42:07.752Z,87.00
2019-01-29T03:43:08.231Z,87.00
2019-01-29T03:44:10.233Z,86.90
2019-01-29T03:45:05.202Z,86.90
2019-01-29T03:46:05.368Z,86.80
2019-01-29T03:47:07.957Z,86.90
2019-01-29T03:48:05.938Z,86.80
2019-01-29T03:49:07.684Z,86.90
2019-01-29T03:50:07.966Z,86.90
2019-01-29T03:51:05.876Z,86.90
2019-01-29T03:52:05.952Z,86.90
2019-01-29T03:53:07.587Z,86.90
2019-01-29T03:54:08.126Z,86.80
2019-01-29T03:55:05.088Z,86.80
2019-01-29T03:56:05.113Z,86.80
2019-01-29T03:57:05.299Z,86.80
2019-01-29T03:58:08.065Z,86.80
2019-01-29T03:59:07.833Z,86.80
2019-01-29T04:00:05.934Z,86.80
2019-01-29T04:01:07.669Z,86.80
2019-01-29T04:02:08.328Z,86.80
2019-01-29T04:03:05.376Z,86.80
2019-01-29T04:04:07.971Z,86.80
2019-01-29T04:05:05.894Z,86.80
2019-01-29T04:06:04.970Z,86.80
2019-01-29T04:07:07.689Z,86.80
2019-01-29T04:08:05.659Z,86.80
2019-01-29T04:09:05.770Z,86.80
2019-01-29T04:10:05.941Z,86.80
2019-01-29T04:11:07.550Z,86.80
2019-01-29T04:12:08.018Z,86.80
2019-01-29T04:13:05.933Z,86.80
2019-01-29T04:14:05.076Z,86.80
2019-01-29T04:15:05.299Z,86.80
2019-01-29T04:16:07.857Z,86.70
2019-01-29T04:17:08.489Z,86.70
2019-01-29T04:18:05.509Z,86.70
2019-01-29T04:19:05.619Z,86.70
2019-01-29T04:20:05.751Z,35.40
2019-01-29T04:21:05.819Z,86.60
2019-01-29T04:22:05.950Z,86.60
2019-01-29T04:23:05.063Z,86.60
2019-01-29T04:24:07.745Z,86.60
2019-01-29T04:25:05.711Z,86.60
2019-01-29T04:26:08.386Z,86.60
2019-01-29T04:27:05.324Z,86.60
2019-01-29T04:28:05.574Z,86.60
2019-01-29T04:29:05.782Z,86.70
2019-01-29T04:30:05.893Z,86.70
2019-01-29T04:31:05.230Z,86.70
2019-01-29T04:32:05.320Z,86.70
2019-01-29T04:33:07.956Z,86.70
2019-01-29T04:34:08.555Z,86.70
2019-01-29T04:35:08.167Z,86.70
2019-01-29T04:36:07.524Z,86.60
2019-01-29T04:37:05.676Z,86.60
2019-01-29T04:38:05.819Z,86.70
2019-01-29T04:39:08.518Z,86.60
2019-01-29T04:40:05.522Z,86.70
2019-01-29T04:41:05.560Z,86.60
2019-01-29T04:42:08.232Z,86.60
2019-01-29T04:43:05.163Z,86.60
2019-01-29T04:44:13.036Z,86.60
2019-01-29T04:45:05.029Z,86.60
2019-01-29T04:46:05.137Z,86.60
2019-01-29T04:47:07.773Z,86.60
2019-01-29T04:48:05.948Z,86.60
2019-01-29T04:49:07.646Z,86.60
2019-01-29T04:50:10.772Z,86.60
2019-01-29T04:51:05.886Z,86.60
2019-01-29T04:52:07.635Z,86.60
2019-01-29T04:53:05.645Z,86.60
2019-01-29T04:54:08.357Z,86.60
2019-01-29T04:55:05.278Z,86.60
2019-01-29T04:56:08.078Z,86.60
2019-01-29T04:57:05.142Z,86.60
2019-01-29T04:58:07.848Z,86.60
2019-01-29T04:59:05.905Z,86.60
2019-01-29T05:00:07.642Z,86.60
2019-01-29T05:01:08.125Z,86.60
2019-01-29T05:02:05.062Z,86.60
2019-01-29T05:03:07.655Z,86.60
2019-01-29T05:04:08.351Z,86.50
2019-01-29T05:05:07.946Z,86.50
2019-01-29T05:06:06.016Z,86.50
2019-01-29T05:07:05.202Z,86.50
2019-01-29T05:08:08.008Z,86.50
2019-01-29T05:09:04.986Z,86.50
2019-01-29T05:10:05.080Z,86.50
2019-01-29T05:11:05.171Z,86.50
2019-01-29T05:12:05.376Z,86.50
2019-01-29T05:13:05.519Z,86.50
2019-01-29T05:14:05.634Z,86.50
2019-01-29T05:15:05.825Z,86.60
2019-01-29T05:16:08.480Z,86.50
2019-01-29T05:17:05.475Z,86.50
2019-01-29T05:18:05.542Z,86.50
2019-01-29T05:19:05.653Z,86.50
2019-01-29T05:20:05.750Z,86.60
2019-01-29T05:21:08.324Z,86.50
2019-01-29T05:22:05.450Z,86.50
2019-01-29T05:23:05.608Z,86.50
2019-01-29T05:24:07.565Z,86.50
2019-01-29T05:25:08.648Z,86.30
2019-01-29T05:26:05.701Z,86.50
2019-01-29T05:27:05.883Z,86.30
2019-01-29T05:28:06.019Z,86.30
2019-01-29T05:29:07.848Z,86.30
2019-01-29T05:30:05.645Z,86.20
2019-01-29T05:31:05.762Z,86.20
2019-01-29T05:32:08.349Z,86.10
2019-01-29T05:33:07.783Z,86.10
2019-01-29T05:34:05.839Z,86.10
2019-01-29T05:35:08.424Z,86.10
2019-01-29T05:36:05.464Z,86.10
2019-01-29T05:37:08.090Z,86.10
2019-01-29T05:38:07.522Z,86.00
2019-01-29T05:39:05.502Z,86.00
2019-01-29T05:40:05.583Z,86.00
2019-01-29T05:41:05.633Z,86.00
2019-01-29T05:42:05.925Z,85.90
2019-01-29T05:43:05.023Z,85.80
2019-01-29T05:44:07.734Z,85.80
2019-01-29T05:45:05.874Z,85.80
2019-01-29T05:46:05.143Z,85.80
2019-01-29T05:47:05.258Z,85.70
2019-01-29T05:48:10.562Z,85.70
2019-01-29T05:49:05.617Z,85.70
2019-01-29T05:50:07.635Z,85.70
2019-01-29T05:51:08.176Z,85.70
2019-01-29T05:52:07.734Z,85.70
2019-01-29T05:53:05.708Z,85.70
2019-01-29T05:54:16.723Z,85.70
2019-01-29T05:55:05.929Z,85.60
2019-01-29T05:56:10.098Z,85.50
2019-01-29T05:57:07.602Z,85.70
2019-01-29T05:58:05.584Z,85.50
2019-01-29T05:59:05.705Z,85.50
2019-01-29T06:00:05.241Z,85.40
2019-01-29T06:01:05.350Z,85.40
2019-01-29T06:02:05.562Z,85.40
2019-01-29T06:03:08.235Z,85.40
2019-01-29T06:04:05.234Z,85.40
2019-01-29T06:05:07.814Z,85.40
2019-01-29T06:06:05.932Z,85.40
2019-01-29T06:07:05.163Z,85.40
2019-01-29T06:08:05.761Z,85.30
2019-01-29T06:09:05.987Z,85.30
2019-01-29T06:10:12.592Z,85.30
2019-01-29T06:11:05.471Z,85.30
2019-01-29T06:12:08.241Z,85.30
2019-01-29T06:13:07.785Z,85.20
2019-01-29T06:14:08.299Z,85.30
2019-01-29T06:15:05.224Z,85.40
2019-01-29T06:16:07.839Z,85.40
2019-01-29T06:17:05.853Z,85.40
2019-01-29T06:18:08.587Z,85.50
2019-01-29T06:19:08.254Z,85.50
2019-01-29T06:20:10.340Z,85.40
2019-01-29T06:21:08.039Z,85.40
2019-01-29T06:22:05.059Z,85.40
2019-01-29T06:23:07.802Z,85.50
2019-01-29T06:24:05.840Z,85.40
2019-01-29T06:25:06.161Z,85.40
2019-01-29T06:26:05.455Z,85.40
2019-01-29T06:27:05.532Z,85.10
2019-01-29T06:28:08.119Z,85.20
2019-01-29T06:29:05.117Z,85.20
2019-01-29T06:30:05.555Z,85.20
2019-01-29T06:31:08.158Z,85.30
2019-01-29T06:32:05.160Z,85.30
2019-01-29T06:33:05.312Z,85.40
2019-01-29T06:34:05.307Z,85.40
2019-01-29T06:35:05.398Z,85.50
2019-01-29T06:36:05.519Z,85.50
2019-01-29T06:37:10.801Z,85.50
2019-01-29T06:38:08.469Z,85.50
2019-01-29T06:39:08.117Z,85.50
2019-01-29T06:40:10.340Z,85.60
2019-01-29T06:41:07.866Z,85.60
2019-01-29T06:42:05.973Z,85.60
2019-01-29T06:43:05.079Z,85.60
2019-01-29T06:44:07.727Z,85.70
2019-01-29T06:45:05.891Z,85.70
2019-01-29T06:46:05.163Z,85.70
2019-01-29T06:47:07.815Z,85.70
2019-01-29T06:48:08.466Z,85.80
2019-01-29T06:49:05.702Z,85.80
2019-01-29T06:50:08.561Z,85.90
2019-01-29T06:51:05.631Z,85.80
2019-01-29T06:52:08.373Z,85.90
2019-01-29T06:53:05.370Z,85.90
2019-01-29T06:54:05.515Z,85.90
2019-01-29T06:55:05.618Z,85.80
2019-01-29T06:56:05.789Z,85.90
2019-01-29T06:57:05.934Z,85.90
2019-01-29T06:58:05.064Z,85.90
2019-01-29T06:59:10.315Z,85.90
2019-01-29T07:00:07.847Z,85.80
2019-01-29T07:01:05.867Z,85.90
2019-01-29T07:02:08.070Z,85.90
2019-01-29T07:03:07.811Z,85.80
2019-01-29T07:04:08.448Z,85.90
2019-01-29T07:05:07.913Z,85.90
2019-01-29T07:06:05.962Z,85.90
2019-01-29T07:07:05.090Z,85.90
2019-01-29T07:08:05.224Z,85.90
2019-01-29T07:09:07.813Z,85.90
2019-01-29T07:10:08.284Z,85.90
2019-01-29T07:11:05.264Z,85.90
2019-01-29T07:12:05.404Z,85.90
2019-01-29T07:13:07.955Z,85.90
2019-01-29T07:14:06.016Z,85.90
2019-01-29T07:15:05.305Z,86.10
2019-01-29T07:16:07.945Z,86.00
2019-01-29T07:17:06.009Z,86.00
2019-01-29T07:18:05.140Z,86.00
2019-01-29T07:19:05.203Z,86.00
2019-01-29T07:20:05.426Z,86.00
2019-01-29T07:21:05.552Z,85.90
2019-01-29T07:22:08.221Z,85.90
2019-01-29T07:23:07.702Z,85.90
2019-01-29T07:24:08.255Z,85.90
2019-01-29T07:25:07.703Z,85.90
2019-01-29T07:26:05.875Z,85.90
2019-01-29T07:27:07.575Z,85.90
2019-01-29T07:28:08.198Z,85.90
2019-01-29T07:29:05.208Z,85.90
2019-01-29T07:30:08.184Z,85.90
2019-01-29T07:31:05.201Z,86.00
2019-01-29T07:32:05.337Z,86.00
2019-01-29T07:33:07.968Z,85.90
2019-01-29T07:34:08.486Z,85.90
2019-01-29T07:35:08.160Z,86.00
2019-01-29T07:36:07.630Z,85.90
2019-01-29T07:37:05.558Z,85.90
2019-01-29T07:38:05.698Z,85.90
2019-01-29T07:39:05.821Z,85.90
2019-01-29T07:40:08.538Z,85.90
2019-01-29T07:41:05.588Z,85.90
2019-01-29T07:42:08.248Z,85.90
2019-01-29T07:43:07.905Z,85.90
2019-01-29T07:44:08.472Z,85.90
2019-01-29T07:45:05.522Z,86.00
2019-01-29T07:46:05.650Z,85.90
2019-01-29T07:47:05.797Z,85.90
2019-01-29T07:48:07.531Z,85.80
2019-01-29T07:49:08.203Z,85.70
2019-01-29T07:50:05.247Z,85.80
2019-01-29T07:51:05.459Z,85.70
2019-01-29T07:52:05.691Z,85.80
2019-01-29T07:53:08.390Z,85.90
2019-01-29T07:54:07.983Z,85.80
2019-01-29T07:55:05.017Z,85.80
2019-01-29T07:56:05.118Z,85.90
2019-01-29T07:57:05.227Z,85.80
2019-01-29T07:58:07.964Z,85.80
2019-01-29T07:59:07.728Z,85.80
2019-01-29T08:00:05.725Z,85.80
2019-01-29T08:01:05.228Z,85.80
2019-01-29T08:02:05.337Z,85.80
2019-01-29T08:03:05.434Z,85.90
2019-01-29T08:04:08.251Z,85.80
2019-01-29T08:05:05.344Z,85.80
2019-01-29T08:06:05.588Z,85.80
2019-01-29T08:07:08.202Z,85.80
2019-01-29T08:08:05.290Z,85.80
2019-01-29T08:09:08.059Z,85.90
2019-01-29T08:10:07.582Z,85.80
2019-01-29T08:11:05.613Z,85.90
2019-01-29T08:12:08.296Z,86.00
2019-01-29T08:13:07.948Z,86.00
2019-01-29T08:14:05.927Z,86.00
2019-01-29T08:15:05.012Z,86.00
2019-01-29T08:16:05.165Z,86.00
2019-01-29T08:17:05.345Z,86.00
2019-01-29T08:18:05.639Z,85.90
2019-01-29T08:19:05.732Z,86.00
2019-01-29T08:20:05.766Z,85.80
2019-01-29T08:21:05.865Z,85.80
2019-01-29T08:22:06.014Z,85.80
2019-01-29T08:23:07.888Z,85.90
2019-01-29T08:24:08.569Z,85.90
2019-01-29T08:25:08.088Z,85.90
2019-01-29T08:26:07.565Z,85.80
2019-01-29T08:27:05.586Z,85.80
2019-01-29T08:28:05.687Z,85.70
2019-01-29T08:29:05.884Z,85.70
2019-01-29T08:30:07.874Z,85.70
2019-01-29T08:31:05.829Z,85.70
2019-01-29T08:32:05.968Z,85.70
2019-01-29T08:33:05.082Z,85.70
2019-01-29T08:34:07.706Z,85.70
2019-01-29T08:35:05.792Z,85.80
2019-01-29T08:36:08.528Z,85.80
2019-01-29T08:37:05.576Z,85.80
2019-01-29T08:38:08.116Z,85.70
2019-01-29T08:39:05.061Z,85.70
2019-01-29T08:40:05.112Z,85.60
2019-01-29T08:41:07.820Z,85.60
2019-01-29T08:42:05.870Z,85.60
2019-01-29T08:43:05.993Z,85.70
2019-01-29T08:44:10.185Z,85.60
2019-01-29T08:45:05.139Z,85.60
2019-01-29T08:46:07.846Z,85.30
2019-01-29T08:47:05.790Z,85.30
2019-01-29T08:48:06.026Z,85.00
2019-01-29T08:49:05.093Z,85.00
2019-01-29T08:50:05.249Z,85.00
2019-01-29T08:51:07.863Z,85.00
2019-01-29T08:52:05.942Z,85.10
2019-01-29T08:53:07.560Z,85.10
2019-01-29T08:54:05.585Z,85.00
2019-01-29T08:55:11.200Z,85.00
2019-01-29T08:56:05.391Z,84.90
2019-01-29T08:57:05.587Z,84.80
2019-01-29T08:58:13.274Z,84.80
2019-01-29T08:59:07.819Z,84.80
2019-01-29T09:00:08.442Z,84.90
2019-01-29T09:01:05.562Z,84.90
2019-01-29T09:02:05.606Z,85.00
2019-01-29T09:03:05.896Z,85.00
2019-01-29T09:04:05.028Z,85.00
2019-01-29T09:05:05.138Z,85.00
2019-01-29T09:06:10.310Z,85.00
2019-01-29T09:07:12.827Z,85.00
2019-01-29T09:08:06.048Z,85.00
2019-01-29T09:09:05.543Z,85.00
2019-01-29T09:10:05.635Z,84.90
2019-01-29T09:11:05.763Z,85.00
2019-01-29T09:12:08.507Z,85.00
2019-01-29T09:13:05.566Z,85.10
2019-01-29T09:14:08.357Z,84.90
2019-01-29T09:15:05.365Z,84.90
2019-01-29T09:16:05.614Z,84.80
2019-01-29T09:17:05.829Z,84.80
2019-01-29T09:18:05.880Z,84.70
2019-01-29T09:19:10.232Z,84.50
2019-01-29T09:20:05.196Z,84.50
2019-01-29T09:21:05.360Z,84.40
2019-01-29T09:22:07.959Z,84.40
2019-01-29T09:23:08.686Z,84.20
2019-01-29T09:24:05.737Z,84.20
2019-01-29T09:25:05.958Z,84.20
2019-01-29T09:26:05.112Z,84.20
2019-01-29T09:27:07.920Z,84.20
2019-01-29T09:28:05.861Z,84.20
2019-01-29T09:29:05.220Z,84.10
2019-01-29T09:30:05.951Z,84.10
2019-01-29T09:31:05.031Z,84.00
2019-01-29T09:32:05.865Z,83.90
2019-01-29T09:33:05.949Z,83.80
2019-01-29T09:34:05.021Z,83.70
2019-01-29T09:35:05.215Z,83.50
2019-01-29T09:36:05.403Z,83.40
2019-01-29T09:37:05.538Z,83.40
2019-01-29T09:38:05.910Z,83.40
2019-01-29T09:39:04.991Z,83.40
2019-01-29T09:40:05.153Z,83.30
2019-01-29T09:41:05.216Z,83.30
2019-01-29T09:42:05.404Z,83.50
2019-01-29T09:43:07.979Z,83.40
2019-01-29T09:44:05.965Z,83.40
2019-01-29T09:45:07.621Z,83.30
2019-01-29T09:46:08.203Z,83.30
2019-01-29T09:47:05.280Z,83.40
2019-01-29T09:48:07.893Z,83.30
2019-01-29T09:49:11.668Z,83.30
2019-01-29T09:50:08.228Z,83.00
2019-01-29T09:51:05.272Z,83.00
2019-01-29T09:52:07.832Z,82.90
2019-01-29T09:53:10.823Z,83.00
2019-01-29T09:54:08.353Z,82.80
2019-01-29T09:55:05.283Z,82.80
2019-01-29T09:56:05.367Z,82.80
2019-01-29T09:57:05.531Z,82.70
2019-01-29T09:58:08.238Z,82.60
2019-01-29T09:59:05.199Z,82.60
2019-01-29T10:00:05.345Z,82.70
2019-01-29T10:01:05.630Z,82.70
2019-01-29T10:02:05.912Z,82.50
2019-01-29T10:03:07.587Z,82.50
2019-01-29T10:04:05.583Z,82.50
2019-01-29T10:05:08.355Z,82.50
2019-01-29T10:06:07.869Z,82.60
2019-01-29T10:07:05.836Z,82.60
2019-01-29T10:08:06.141Z,82.50
2019-01-29T10:09:05.407Z,82.30
2019-01-29T10:10:05.584Z,82.30
2019-01-29T10:11:05.845Z,82.30
2019-01-29T10:12:05.035Z,82.30
2019-01-29T10:13:07.746Z,82.20
2019-01-29T10:14:08.296Z,82.20
2019-01-29T10:15:07.966Z,82.20
2019-01-29T10:16:05.997Z,82.20
2019-01-29T10:17:05.108Z,82.00
2019-01-29T10:18:07.847Z,81.80
2019-01-29T10:19:05.890Z,81.80
2019-01-29T10:20:04.975Z,81.60
2019-01-29T10:21:05.066Z,81.60
2019-01-29T10:22:05.232Z,81.50
2019-01-29T10:23:05.469Z,81.00
2019-01-29T10:24:08.166Z,81.00
2019-01-29T10:25:07.815Z,80.90
2019-01-29T10:26:10.872Z,80.90
2019-01-29T10:27:05.897Z,80.90
2019-01-29T10:28:07.614Z,80.60
2019-01-29T10:29:05.810Z,80.50
2019-01-29T10:30:05.290Z,80.50
2019-01-29T10:31:08.121Z,80.40
2019-01-29T10:32:05.149Z,80.40
2019-01-29T10:33:07.782Z,80.20
2019-01-29T10:34:08.253Z,80.20
2019-01-29T10:35:05.362Z,80.30
2019-01-29T10:36:05.426Z,80.50
2019-01-29T10:37:05.618Z,80.50
2019-01-29T10:38:08.445Z,80.00
2019-01-29T10:39:05.489Z,80.00
2019-01-29T10:40:05.609Z,80.10
2019-01-29T10:41:05.731Z,80.10
2019-01-29T10:42:06.408Z,80.30
2019-01-29T10:43:08.096Z,80.30
2019-01-29T10:44:05.126Z,80.30
2019-01-29T10:45:05.235Z,80.30
2019-01-29T10:46:05.326Z,80.40
2019-01-29T10:47:05.520Z,80.50
2019-01-29T10:48:05.569Z,80.30
2019-01-29T10:49:05.745Z,80.20
2019-01-29T10:50:05.841Z,80.10
2019-01-29T10:51:05.945Z,80.00
2019-01-29T10:52:07.554Z,80.00
2019-01-29T10:53:08.027Z,79.80
2019-01-29T10:54:05.057Z,79.80
2019-01-29T10:55:05.198Z,79.80
2019-01-29T10:56:07.942Z,79.80
2019-01-29T10:57:04.997Z,79.80
2019-01-29T10:58:10.271Z,80.00
2019-01-29T10:59:05.316Z,80.00
2019-01-29T11:00:05.413Z,79.80
2019-01-29T11:01:05.464Z,79.80
2019-01-29T11:02:05.515Z,79.80
2019-01-29T11:03:05.899Z,79.60
2019-01-29T11:04:07.702Z,79.40
2019-01-29T11:05:05.746Z,79.40
2019-01-29T11:06:08.383Z,78.80
2019-01-29T11:07:07.849Z,78.80
2019-01-29T11:08:06.062Z,78.80
2019-01-29T11:09:07.995Z,78.40
2019-01-29T11:10:04.990Z,78.40
2019-01-29T11:11:08.296Z,78.30
2019-01-29T11:12:05.315Z,78.30
2019-01-29T11:13:07.588Z,78.40
2019-01-29T11:14:05.617Z,78.40
2019-01-29T11:15:05.700Z,78.20
2019-01-29T11:16:05.843Z,78.10
2019-01-29T11:17:08.525Z,77.90
2019-01-29T11:18:08.056Z,77.90
2019-01-29T11:19:07.592Z,78.00
2019-01-29T11:20:05.574Z,78.00
2019-01-29T11:21:05.725Z,78.00
2019-01-29T11:22:05.813Z,77.90
2019-01-29T11:23:08.483Z,77.60
2019-01-29T11:24:05.554Z,77.70
2019-01-29T11:25:05.704Z,77.50
2019-01-29T11:26:05.895Z,77.40
2019-01-29T11:27:05.975Z,77.00
2019-01-29T11:28:07.622Z,77.10
2019-01-29T11:29:05.721Z,76.90
2019-01-29T11:30:07.534Z,76.30
2019-01-29T11:31:05.554Z,76.30
2019-01-29T11:32:05.720Z,76.10
2019-01-29T11:33:08.391Z,76.00
2019-01-29T11:34:05.565Z,76.00
2019-01-29T11:35:05.783Z,76.00
2019-01-29T11:36:05.911Z,76.00
2019-01-29T11:37:05.099Z,75.90
2019-01-29T11:38:05.938Z,75.90
2019-01-29T11:39:07.584Z,75.60
2019-01-29T11:40:08.107Z,75.40
2019-01-29T11:41:05.104Z,75.40
2019-01-29T11:42:05.358Z,75.20
2019-01-29T11:43:05.481Z,74.90
2019-01-29T11:44:08.105Z,75.00
2019-01-29T11:45:05.039Z,75.00
2019-01-29T11:46:08.156Z,75.20
2019-01-29T11:47:06.992Z,75.20
2019-01-29T11:48:05.027Z,75.40
2019-01-29T11:49:07.647Z,74.90
2019-01-29T11:50:08.159Z,74.70
2019-01-29T11:51:05.282Z,74.70
2019-01-29T11:52:05.531Z,74.90
2019-01-29T11:53:05.774Z,74.60
2019-01-29T11:54:10.955Z,74.40
2019-01-29T11:55:06.110Z,74.40
2019-01-29T11:56:05.455Z,74.00
2019-01-29T11:57:05.634Z,73.90
2019-01-29T11:58:05.857Z,74.00
2019-01-29T11:59:05.942Z,74.20
2019-01-29T12:00:05.170Z,73.90
2019-01-29T12:01:05.383Z,73.90
2019-01-29T12:02:08.011Z,74.30
2019-01-29T12:03:08.597Z,74.30
2019-01-29T12:04:08.193Z,74.70
2019-01-29T12:05:07.672Z,74.30
2019-01-29T12:06:05.642Z,74.30
2019-01-29T12:07:05.711Z,74.20
2019-01-29T12:08:05.868Z,74.00
2019-01-29T12:09:05.922Z,74.00
2019-01-29T12:10:05.047Z,74.20
2019-01-29T12:11:07.765Z,74.00
2019-01-29T12:12:05.879Z,73.90
2019-01-29T12:13:04.960Z,74.10
2019-01-29T12:14:07.559Z,74.40
2019-01-29T12:15:08.176Z,74.30
2019-01-29T12:16:05.227Z,74.40
2019-01-29T12:17:05.461Z,74.30
2019-01-29T12:18:13.201Z,74.50
2019-01-29T12:19:05.192Z,74.50
2019-01-29T12:20:05.328Z,74.30
2019-01-29T12:21:05.447Z,74.30
2019-01-29T12:22:05.581Z,74.30
2019-01-29T12:23:05.684Z,74.20
2019-01-29T12:24:05.946Z,74.20
2019-01-29T12:25:05.081Z,73.80
2019-01-29T12:26:13.539Z,73.80
2019-01-29T12:27:08.242Z,73.90
2019-01-29T12:28:07.821Z,73.80
2019-01-29T12:29:05.935Z,73.90
2019-01-29T12:30:05.250Z,73.80
2019-01-29T12:31:05.392Z,73.80
2019-01-29T12:32:05.557Z,73.80
2019-01-29T12:33:05.737Z,73.90
2019-01-29T12:34:05.795Z,73.70
2019-01-29T12:35:05.860Z,73.90
2019-01-29T12:36:05.960Z,73.80
2019-01-29T12:37:07.587Z,74.20
2019-01-29T12:38:05.569Z,74.20
2019-01-29T12:39:05.760Z,74.20
2019-01-29T12:40:05.896Z,74.10
2019-01-29T12:41:05.946Z,74.00
2019-01-29T12:42:05.146Z,74.20
2019-01-29T12:43:05.294Z,74.40
2019-01-29T12:44:05.565Z,74.50
2019-01-29T12:45:08.222Z,75.00
2019-01-29T12:46:05.186Z,75.00
2019-01-29T12:47:05.297Z,75.10
2019-01-29T12:48:05.510Z,75.50
2019-01-29T12:49:05.633Z,75.50
2019-01-29T12:50:05.720Z,75.70
2019-01-29T12:51:10.281Z,75.90
2019-01-29T12:52:05.226Z,75.90